sensor_id;sensor_type;location;lat;lon;timestamp;P1;durP1;ratioP1;P2;durP2;ratioP2
30466;SDS011;17258;52.560;13.046;2023-08-17T00:03:02;1.77;;;1.55;;
30466;SDS011;17258;52.560;13.046;2023-08-17T00:13:03;1.95;;;1.30;;
30466;SDS011;17258;52.560;13.046;2023-08-17T00:23:04;1.40;;;1.30;;
30466;SDS011;17258;52.560;13.046;2023-08-17T00:33:04;4.63;;;1.40;;
30466;SDS011;17258;52.560;13.046;2023-08-17T00:43:05;1.08;;;1.08;;
30466;SDS011;17258;52.560;13.046;2023-08-17T00:53:07;1.45;;;1.35;;
30466;SDS011;17258;52.560;13.046;2023-08-17T01:03:13;1.10;;;1.05;;
30466;SDS011;17258;52.560;13.046;2023-08-17T01:13:16;1.10;;;1.00;;
30466;SDS011;17258;52.560;13.046;2023-08-17T01:23:48;1.80;;;1.20;;
30466;SDS011;17258;52.560;13.046;2023-08-17T01:33:50;1.42;;;1.33;;
30466;SDS011;17258;52.560;13.046;2023-08-17T01:43:56;1.33;;;1.20;;
30466;SDS011;17258;52.560;13.046;2023-08-17T01:53:59;7.00;;;1.45;;
30466;SDS011;17258;52.560;13.046;2023-08-17T02:03:59;1.27;;;1.17;;
30466;SDS011;17258;52.560;13.046;2023-08-17T02:14:02;1.85;;;1.20;;
30466;SDS011;17258;52.560;13.046;2023-08-17T02:24:02;1.63;;;1.17;;
30466;SDS011;17258;52.560;13.046;2023-08-17T02:34:03;1.85;;;1.05;;
30466;SDS011;17258;52.560;13.046;2023-08-17T02:44:05;1.33;;;1.17;;
30466;SDS011;17258;52.560;13.046;2023-08-17T02:54:05;1.30;;;1.20;;
30466;SDS011;17258;52.560;13.046;2023-08-17T03:04:06;1.50;;;1.27;;
30466;SDS011;17258;52.560;13.046;2023-08-17T03:14:07;4.27;;;1.40;;
30466;SDS011;17258;52.560;13.046;2023-08-17T03:24:07;1.33;;;1.23;;
30466;SDS011;17258;52.560;13.046;2023-08-17T03:34:08;1.03;;;0.93;;
30466;SDS011;17258;52.560;13.046;2023-08-17T03:44:09;1.83;;;1.53;;
30466;SDS011;17258;52.560;13.046;2023-08-17T03:54:09;1.30;;;1.10;;
30466;SDS011;17258;52.560;13.046;2023-08-17T04:04:10;1.67;;;1.20;;
30466;SDS011;17258;52.560;13.046;2023-08-17T04:14:10;1.40;;;0.87;;
30466;SDS011;17258;52.560;13.046;2023-08-17T04:24:12;3.17;;;1.40;;
30466;SDS011;17258;52.560;13.046;2023-08-17T04:34:12;0.90;;;0.90;;
30466;SDS011;17258;52.560;13.046;2023-08-17T04:44:13;1.23;;;0.83;;
30466;SDS011;17258;52.560;13.046;2023-08-17T04:54:14;1.20;;;0.93;;
30466;SDS011;17258;52.560;13.046;2023-08-17T05:04:14;1.40;;;1.30;;
30466;SDS011;17258;52.560;13.046;2023-08-17T05:14:15;4.43;;;2.50;;
30466;SDS011;17258;52.560;13.046;2023-08-17T05:24:16;1.40;;;1.30;;
30466;SDS011;17258;52.560;13.046;2023-08-17T05:34:16;2.03;;;1.23;;
30466;SDS011;17258;52.560;13.046;2023-08-17T05:44:17;1.33;;;1.00;;
30466;SDS011;17258;52.560;13.046;2023-08-17T05:54:18;4.00;;;3.70;;
30466;SDS011;17258;52.560;13.046;2023-08-17T06:04:18;2.83;;;1.27;;
30466;SDS011;17258;52.560;13.046;2023-08-17T06:14:21;6.53;;;6.22;;
30466;SDS011;17258;52.560;13.046;2023-08-17T06:24:22;6.95;;;6.65;;
30466;SDS011;17258;52.560;13.046;2023-08-17T06:34:22;7.57;;;7.00;;
30466;SDS011;17258;52.560;13.046;2023-08-17T06:44:23;4.37;;;3.50;;
30466;SDS011;17258;52.560;13.046;2023-08-17T06:54:24;2.97;;;2.60;;
30466;SDS011;17258;52.560;13.046;2023-08-17T07:04:25;1.80;;;1.70;;
30466;SDS011;17258;52.560;13.046;2023-08-17T07:14:25;1.57;;;1.40;;
30466;SDS011;17258;52.560;13.046;2023-08-17T07:24:26;2.13;;;2.03;;
30466;SDS011;17258;52.560;13.046;2023-08-17T07:34:27;1.97;;;1.87;;
30466;SDS011;17258;52.560;13.046;2023-08-17T07:44:31;3.38;;;3.17;;
30466;SDS011;17258;52.560;13.046;2023-08-17T07:54:33;8.45;;;7.95;;
30466;SDS011;17258;52.560;13.046;2023-08-17T08:04:33;3.30;;;2.88;;
30466;SDS011;17258;52.560;13.046;2023-08-17T08:14:35;6.17;;;5.80;;
30466;SDS011;17258;52.560;13.046;2023-08-17T08:24:35;6.45;;;6.05;;
30466;SDS011;17258;52.560;13.046;2023-08-17T08:34:36;10.17;;;9.63;;
30466;SDS011;17258;52.560;13.046;2023-08-17T08:44:37;11.43;;;10.83;;
30466;SDS011;17258;52.560;13.046;2023-08-17T08:54:37;11.30;;;10.60;;
30466;SDS011;17258;52.560;13.046;2023-08-17T09:04:42;10.63;;;10.13;;
30466;SDS011;17258;52.560;13.046;2023-08-17T09:14:46;11.10;;;10.20;;
30466;SDS011;17258;52.560;13.046;2023-08-17T09:24:46;10.70;;;10.10;;
30466;SDS011;17258;52.560;13.046;2023-08-17T09:34:47;10.50;;;9.98;;
30466;SDS011;17258;52.560;13.046;2023-08-17T09:44:49;11.43;;;10.75;;
30466;SDS011;17258;52.560;13.046;2023-08-17T09:54:50;10.67;;;10.17;;
30466;SDS011;17258;52.560;13.046;2023-08-17T10:04:53;10.60;;;10.10;;
30466;SDS011;17258;52.560;13.046;2023-08-17T10:14:55;11.88;;;11.18;;
30466;SDS011;17258;52.560;13.046;2023-08-17T10:25:01;13.10;;;12.40;;
30466;SDS011;17258;52.560;13.046;2023-08-17T10:35:04;13.25;;;12.55;;
30466;SDS011;17258;52.560;13.046;2023-08-17T10:55:38;14.70;;;13.48;;
30466;SDS011;17258;52.560;13.046;2023-08-17T11:05:51;14.90;;;13.90;;
30466;SDS011;17258;52.560;13.046;2023-08-17T11:15:55;14.82;;;13.93;;
30466;SDS011;17258;52.560;13.046;2023-08-17T11:25:56;15.00;;;14.20;;
30466;SDS011;17258;52.560;13.046;2023-08-17T11:35:57;15.38;;;14.48;;
30466;SDS011;17258;52.560;13.046;2023-08-17T11:46:03;15.50;;;14.60;;
30466;SDS011;17258;52.560;13.046;2023-08-17T11:56:05;15.65;;;14.75;;
30466;SDS011;17258;52.560;13.046;2023-08-17T12:06:05;15.53;;;14.63;;
30466;SDS011;17258;52.560;13.046;2023-08-17T12:16:06;15.20;;;14.40;;
30466;SDS011;17258;52.560;13.046;2023-08-17T12:26:21;15.13;;;14.25;;
30466;SDS011;17258;52.560;13.046;2023-08-17T12:36:22;17.15;;;16.10;;
30466;SDS011;17258;52.560;13.046;2023-08-17T12:46:22;16.83;;;15.63;;
30466;SDS011;17258;52.560;13.046;2023-08-17T12:56:23;17.37;;;16.30;;
30466;SDS011;17258;52.560;13.046;2023-08-17T13:06:24;18.27;;;17.07;;
30466;SDS011;17258;52.560;13.046;2023-08-17T13:16:24;17.33;;;16.13;;
30466;SDS011;17258;52.560;13.046;2023-08-17T13:26:25;18.83;;;17.53;;
30466;SDS011;17258;52.560;13.046;2023-08-17T13:36:26;17.60;;;16.60;;
30466;SDS011;17258;52.560;13.046;2023-08-17T13:46:26;17.60;;;16.57;;
30466;SDS011;17258;52.560;13.046;2023-08-17T13:56:27;18.73;;;17.63;;
30466;SDS011;17258;52.560;13.046;2023-08-17T14:06:28;19.47;;;18.27;;
30466;SDS011;17258;52.560;13.046;2023-08-17T14:16:29;9.20;;;8.60;;
30466;SDS011;17258;52.560;13.046;2023-08-17T14:26:30;18.95;;;17.80;;
30466;SDS011;17258;52.560;13.046;2023-08-17T14:36:31;20.23;;;18.87;;
30466;SDS011;17258;52.560;13.046;2023-08-17T14:46:31;17.47;;;16.47;;
30466;SDS011;17258;52.560;13.046;2023-08-17T14:56:32;15.60;;;14.70;;
30466;SDS011;17258;52.560;13.046;2023-08-17T15:06:33;19.23;;;18.03;;
30466;SDS011;17258;52.560;13.046;2023-08-17T15:16:33;18.97;;;17.87;;
30466;SDS011;17258;52.560;13.046;2023-08-17T15:26:34;20.13;;;18.83;;
30466;SDS011;17258;52.560;13.046;2023-08-17T15:36:35;13.37;;;12.67;;
30466;SDS011;17258;52.560;13.046;2023-08-17T15:46:35;19.00;;;17.80;;
30466;SDS011;17258;52.560;13.046;2023-08-17T15:56:36;18.67;;;17.57;;
30466;SDS011;17258;52.560;13.046;2023-08-17T16:06:37;8.23;;;7.57;;
30466;SDS011;17258;52.560;13.046;2023-08-17T16:16:42;9.55;;;5.95;;
30466;SDS011;17258;52.560;13.046;2023-08-17T16:26:43;3.30;;;3.00;;
30466;SDS011;17258;52.560;13.046;2023-08-17T16:36:44;1.97;;;1.87;;
30466;SDS011;17258;52.560;13.046;2023-08-17T16:46:44;1.80;;;1.67;;
30466;SDS011;17258;52.560;13.046;2023-08-17T16:56:45;1.80;;;1.70;;
30466;SDS011;17258;52.560;13.046;2023-08-17T17:06:46;3.47;;;3.17;;
30466;SDS011;17258;52.560;13.046;2023-08-17T17:16:46;2.40;;;2.20;;
30466;SDS011;17258;52.560;13.046;2023-08-17T17:26:47;2.77;;;2.57;;
30466;SDS011;17258;52.560;13.046;2023-08-17T17:36:47;1.90;;;1.80;;
30466;SDS011;17258;52.560;13.046;2023-08-17T17:46:49;2.22;;;1.88;;
30466;SDS011;17258;52.560;13.046;2023-08-17T17:56:49;1.67;;;1.57;;
30466;SDS011;17258;52.560;13.046;2023-08-17T18:06:50;2.20;;;2.00;;
30466;SDS011;17258;52.560;13.046;2023-08-17T18:16:51;2.00;;;1.70;;
30466;SDS011;17258;52.560;13.046;2023-08-17T18:26:51;2.70;;;2.10;;
30466;SDS011;17258;52.560;13.046;2023-08-17T18:36:52;1.50;;;1.40;;
30466;SDS011;17258;52.560;13.046;2023-08-17T18:46:53;1.95;;;1.75;;
30466;SDS011;17258;52.560;13.046;2023-08-17T18:56:54;2.10;;;1.70;;
30466;SDS011;17258;52.560;13.046;2023-08-17T19:06:54;1.60;;;1.50;;
30466;SDS011;17258;52.560;13.046;2023-08-17T19:16:55;1.63;;;1.50;;
30466;SDS011;17258;52.560;13.046;2023-08-17T19:26:57;1.23;;;1.13;;
30466;SDS011;17258;52.560;13.046;2023-08-17T19:36:58;3.50;;;1.30;;
30466;SDS011;17258;52.560;13.046;2023-08-17T19:46:58;1.50;;;1.40;;
30466;SDS011;17258;52.560;13.046;2023-08-17T19:56:59;1.50;;;1.30;;
30466;SDS011;17258;52.560;13.046;2023-08-17T20:07:00;1.53;;;1.43;;
30466;SDS011;17258;52.560;13.046;2023-08-17T20:17:00;1.47;;;1.37;;
30466;SDS011;17258;52.560;13.046;2023-08-17T20:27:01;2.77;;;1.10;;
30466;SDS011;17258;52.560;13.046;2023-08-17T20:37:02;1.90;;;1.20;;
30466;SDS011;17258;52.560;13.046;2023-08-17T20:47:03;1.00;;;1.00;;
30466;SDS011;17258;52.560;13.046;2023-08-17T20:57:08;1.67;;;1.40;;
30466;SDS011;17258;52.560;13.046;2023-08-17T21:07:09;0.90;;;0.90;;
30466;SDS011;17258;52.560;13.046;2023-08-17T21:17:09;1.30;;;1.17;;
30466;SDS011;17258;52.560;13.046;2023-08-17T21:27:10;1.07;;;1.07;;
30466;SDS011;17258;52.560;13.046;2023-08-17T21:37:11;2.03;;;1.33;;
30466;SDS011;17258;52.560;13.046;2023-08-17T21:47:25;1.90;;;1.40;;
30466;SDS011;17258;52.560;13.046;2023-08-17T21:57:25;1.93;;;1.40;;
30466;SDS011;17258;52.560;13.046;2023-08-17T22:07:26;1.37;;;1.17;;
30466;SDS011;17258;52.560;13.046;2023-08-17T22:17:27;1.40;;;1.13;;
30466;SDS011;17258;52.560;13.046;2023-08-17T22:27:28;1.17;;;1.17;;
30466;SDS011;17258;52.560;13.046;2023-08-17T22:37:29;1.30;;;1.20;;
30466;SDS011;17258;52.560;13.046;2023-08-17T22:47:30;2.40;;;1.40;;
30466;SDS011;17258;52.560;13.046;2023-08-17T22:57:30;1.55;;;1.45;;
30466;SDS011;17258;52.560;13.046;2023-08-17T23:07:31;2.30;;;1.37;;
30466;SDS011;17258;52.560;13.046;2023-08-17T23:17:32;3.83;;;1.27;;
30466;SDS011;17258;52.560;13.046;2023-08-17T23:27:32;1.67;;;1.13;;
30466;SDS011;17258;52.560;13.046;2023-08-17T23:37:33;1.20;;;1.10;;
30466;SDS011;17258;52.560;13.046;2023-08-17T23:47:34;1.30;;;1.20;;
30466;SDS011;17258;52.560;13.046;2023-08-17T23:57:35;2.13;;;1.38;;
